Terminal Aerodrome Forecast
Issued by NWS

Home | Current Version | Previous Version | Text Only | Print | Product List | Glossary On
Versions: 1 2 3 4 5 6 7 8 9 10 11 12 13 14
000
FTUS43 KIND 241700
TAFLAF
TAF
KLAF 241725Z 2418/2518 18012KT P6SM SCT060 BKN130
     FM250100 17012KT P6SM BKN040 OVC100
     FM250700 18013KT P6SM -SHRA OVC025
     FM251400 22011G22KT P6SM BKN025=

USA.gov is the U.S. government's official web portal to all federal, state and local government web resources and services.